Time;durP1;ratioP1;P1;durP2;ratioP2;P2;SDS_P1;SDS_P2;PMS_P1;PMS_P2;Temp;Humidity;BMP_temperature;BMP_pressure;BME280_temperature;BME280_humidity;BME280_pressure;Samples;Min_cycle;Max_cycle;Signal;HPM_P1;HPM_P2
2022/08/16 00:02:09;;;;;;;15.77;10.87;;;;;;;;;;727072;193;635985;-62
2022/08/16 00:04:35;;;;;;;13.80;11.27;;;;;;;;;;730004;193;624993;-58
2022/08/16 00:07:01;;;;;;;12.00;9.93;;;;;;;;;;726461;193;636069;-58
2022/08/16 00:09:27;;;;;;;14.33;11.30;;;;;;;;;;723521;193;626894;-59
2022/08/16 00:11:53;;;;;;;12.47;9.43;;;;;;;;;;731879;192;616935;-62
2022/08/16 00:14:19;;;;;;;13.90;10.87;;;;;;;;;;729300;193;624252;-58
2022/08/16 00:16:44;;;;;;;13.20;10.13;;;;;;;;;;726908;193;630264;-58
2022/08/16 00:19:10;;;;;;;13.20;10.00;;;;;;;;;;727688;193;625522;-59
2022/08/16 00:21:36;;;;;;;13.43;9.53;;;;;;;;;;727728;193;624912;-58
2022/08/16 00:24:02;;;;;;;12.03;10.00;;;;;;;;;;726811;193;635034;-59
2022/08/16 00:26:28;;;;;;;12.30;10.10;;;;;;;;;;727996;193;625008;-58
2022/08/16 00:28:54;;;;;;;12.93;10.40;;;;;;;;;;735438;191;612582;-62
2022/08/16 00:31:19;;;;;;;13.20;10.90;;;;;;;;;;727298;193;617550;-58
2022/08/16 00:33:45;;;;;;;14.37;10.93;;;;;;;;;;728398;194;627936;-59
2022/08/16 00:36:11;;;;;;;11.90;10.07;;;;;;;;;;730616;194;620071;-60
2022/08/16 00:38:37;;;;;;;14.33;10.80;;;;;;;;;;726186;193;623264;-58
2022/08/16 00:41:03;;;;;;;16.20;10.93;;;;;;;;;;728865;193;642721;-59
2022/08/16 00:43:34;;;;;;;16.53;10.37;;;;;;;;;;731097;193;626188;-62
2022/08/16 00:46:00;;;;;;;16.00;10.57;;;;;;;;;;724726;194;625820;-62
2022/08/16 00:48:26;;;;;;;13.07;10.70;;;;;;;;;;726591;194;623831;-62
2022/08/16 00:50:51;;;;;;;11.67;10.40;;;;;;;;;;727203;193;627958;-59
2022/08/16 00:53:17;;;;;;;14.43;11.47;;;;;;;;;;727581;194;628632;-58
2022/08/16 00:55:44;;;;;;;16.70;12.07;;;;;;;;;;725377;193;627275;-58
2022/08/16 00:58:10;;;;;;;13.30;10.30;;;;;;;;;;726614;193;616654;-59
2022/08/16 01:00:36;;;;;;;16.53;11.60;;;;;;;;;;727469;193;626166;-59
2022/08/16 01:03:01;;;;;;;14.13;11.47;;;;;;;;;;723245;194;625760;-59
2022/08/16 01:05:27;;;;;;;14.77;10.07;;;;;;;;;;723564;194;631367;-62
2022/08/16 01:07:54;;;;;;;17.30;11.70;;;;;;;;;;727149;194;628009;-63
2022/08/16 01:10:20;;;;;;;16.50;10.50;;;;;;;;;;730180;193;629450;-58
2022/08/16 01:12:45;;;;;;;15.53;10.30;;;;;;;;;;723457;193;629800;-62
2022/08/16 01:15:12;;;;;;;12.80;11.00;;;;;;;;;;727312;193;634114;-59
2022/08/16 01:17:37;;;;;;;15.40;11.07;;;;;;;;;;726677;194;626205;-62
2022/08/16 01:20:04;;;;;;;16.30;11.13;;;;;;;;;;727047;194;612387;-59
2022/08/16 01:22:31;;;;;;;12.67;10.50;;;;;;;;;;725694;194;638165;-61
2022/08/16 01:24:58;;;;;;;14.83;11.50;;;;;;;;;;728766;193;623970;-60
2022/08/16 01:27:24;;;;;;;13.90;10.93;;;;;;;;;;728708;194;618890;-61
2022/08/16 01:30:05;;;;;;;14.47;11.43;;;;;;;;;;728768;193;624850;-59
2022/08/16 01:32:31;;;;;;;15.20;11.50;;;;;;;;;;722495;195;633834;-59
2022/08/16 01:34:57;;;;;;;18.90;12.33;;;;;;;;;;726268;194;622171;-59
2022/08/16 01:37:23;;;;;;;17.47;12.73;;;;;;;;;;720061;194;622139;-61
2022/08/16 01:39:49;;;;;;;14.93;11.40;;;;;;;;;;728274;194;638739;-63
2022/08/16 01:42:14;;;;;;;16.30;12.43;;;;;;;;;;728004;194;624043;-61
2022/08/16 01:44:40;;;;;;;16.20;12.17;;;;;;;;;;728735;194;616871;-58
2022/08/16 01:47:06;;;;;;;19.73;11.43;;;;;;;;;;724861;193;622747;-62
2022/08/16 01:49:32;;;;;;;15.23;11.20;;;;;;;;;;725804;194;632037;-58
2022/08/16 01:51:59;;;;;;;12.60;10.90;;;;;;;;;;725828;194;617399;-63
2022/08/16 01:54:24;;;;;;;15.73;11.53;;;;;;;;;;725090;194;618837;-58
2022/08/16 01:56:50;;;;;;;16.40;12.30;;;;;;;;;;723101;194;628802;-62
2022/08/16 01:59:16;;;;;;;14.30;10.53;;;;;;;;;;728083;194;621212;-62
2022/08/16 02:01:42;;;;;;;14.33;10.90;;;;;;;;;;721874;194;631864;-59
2022/08/16 02:04:08;;;;;;;12.23;9.93;;;;;;;;;;723337;194;619426;-59
2022/08/16 02:06:34;;;;;;;19.08;11.20;;;;;;;;;;723948;193;623670;-59
2022/08/16 02:08:59;;;;;;;14.77;11.67;;;;;;;;;;730036;194;624399;-61
2022/08/16 02:11:25;;;;;;;13.57;10.23;;;;;;;;;;727412;191;622398;-58
2022/08/16 02:13:51;;;;;;;17.23;11.40;;;;;;;;;;725354;193;624998;-61
2022/08/16 02:16:17;;;;;;;20.83;13.03;;;;;;;;;;732011;194;623763;-59
2022/08/16 02:18:43;;;;;;;16.30;11.13;;;;;;;;;;727676;194;624666;-62
2022/08/16 02:21:09;;;;;;;20.10;12.00;;;;;;;;;;723035;194;630145;-58
2022/08/16 02:23:34;;;;;;;19.93;11.83;;;;;;;;;;727917;193;629350;-58
2022/08/16 02:26:00;;;;;;;16.17;11.03;;;;;;;;;;727949;194;628406;-58
2022/08/16 02:28:26;;;;;;;14.37;11.50;;;;;;;;;;722875;194;627615;-60
2022/08/16 02:30:52;;;;;;;17.77;11.47;;;;;;;;;;721411;193;634972;-60
2022/08/16 02:33:19;;;;;;;14.73;10.57;;;;;;;;;;729027;194;625437;-60
2022/08/16 02:35:45;;;;;;;17.23;12.70;;;;;;;;;;723667;193;626191;-59
2022/08/16 02:38:11;;;;;;;16.80;12.93;;;;;;;;;;727363;194;625173;-60
2022/08/16 02:40:38;;;;;;;16.40;12.67;;;;;;;;;;731458;194;622213;-61
2022/08/16 02:43:02;;;;;;;19.00;12.10;;;;;;;;;;729016;194;635590;-58
2022/08/16 02:45:28;;;;;;;15.80;11.40;;;;;;;;;;725830;193;628750;-58
2022/08/16 02:47:54;;;;;;;14.10;12.13;;;;;;;;;;726455;194;635053;-58
2022/08/16 02:50:20;;;;;;;13.17;11.33;;;;;;;;;;727201;194;627017;-58
2022/08/16 02:52:46;;;;;;;16.30;11.97;;;;;;;;;;725875;194;633360;-61
2022/08/16 02:55:12;;;;;;;17.53;11.60;;;;;;;;;;726750;194;613850;-61
2022/08/16 02:57:38;;;;;;;14.10;11.53;;;;;;;;;;728255;193;630683;-58
2022/08/16 03:00:08;;;;;;;14.27;9.80;;;;;;;;;;727349;193;631302;-60
2022/08/16 03:02:30;;;;;;;16.07;10.80;;;;;;;;;;727970;193;633828;-58
2022/08/16 03:04:55;;;;;;;14.60;11.00;;;;;;;;;;730666;193;611723;-58
2022/08/16 03:07:21;;;;;;;16.80;12.30;;;;;;;;;;725576;193;617121;-61
2022/08/16 03:09:47;;;;;;;17.60;12.40;;;;;;;;;;722955;192;630315;-58
2022/08/16 03:12:13;;;;;;;16.57;13.17;;;;;;;;;;727545;194;621515;-60
2022/08/16 03:14:39;;;;;;;18.87;12.90;;;;;;;;;;722795;193;615478;-62
2022/08/16 03:17:05;;;;;;;16.63;12.23;;;;;;;;;;728181;193;625839;-58
2022/08/16 03:19:30;;;;;;;17.57;11.97;;;;;;;;;;725428;193;664485;-60
2022/08/16 03:21:56;;;;;;;17.33;12.10;;;;;;;;;;725150;194;624902;-58
2022/08/16 03:24:23;;;;;;;15.60;12.10;;;;;;;;;;726295;193;635566;-58
2022/08/16 03:26:48;;;;;;;15.53;11.93;;;;;;;;;;726201;193;636671;-62
2022/08/16 03:29:14;;;;;;;17.00;13.60;;;;;;;;;;733305;193;642114;-58
2022/08/16 03:31:40;;;;;;;16.67;12.60;;;;;;;;;;726577;193;625289;-60
2022/08/16 03:34:06;;;;;;;15.10;12.00;;;;;;;;;;724682;194;637211;-62
2022/08/16 03:36:31;;;;;;;16.97;11.70;;;;;;;;;;728337;194;637246;-59
2022/08/16 03:38:57;;;;;;;18.23;13.20;;;;;;;;;;725381;193;630053;-58
2022/08/16 03:41:25;;;;;;;18.77;13.77;;;;;;;;;;726434;193;625128;-59
2022/08/16 03:43:49;;;;;;;18.87;13.57;;;;;;;;;;726927;193;628605;-61
2022/08/16 03:46:15;;;;;;;19.50;14.00;;;;;;;;;;734425;191;634776;-58
2022/08/16 03:48:41;;;;;;;17.33;12.83;;;;;;;;;;728466;192;620976;-59
2022/08/16 03:51:06;;;;;;;17.73;13.40;;;;;;;;;;726012;193;631349;-58
2022/08/16 03:53:32;;;;;;;22.80;14.17;;;;;;;;;;729597;193;627963;-58
2022/08/16 03:55:58;;;;;;;18.80;13.30;;;;;;;;;;727488;193;628482;-61
2022/08/16 03:58:24;;;;;;;19.10;13.70;;;;;;;;;;728598;193;626510;-60
2022/08/16 04:00:50;;;;;;;17.60;14.03;;;;;;;;;;730861;192;632708;-60
2022/08/16 04:03:16;;;;;;;17.90;13.50;;;;;;;;;;727284;194;619355;-58
2022/08/16 04:05:42;;;;;;;19.57;14.60;;;;;;;;;;727847;193;630824;-58
2022/08/16 04:08:07;;;;;;;17.70;12.90;;;;;;;;;;724329;194;631135;-58
2022/08/16 04:10:33;;;;;;;17.57;14.10;;;;;;;;;;727798;193;624240;-60
2022/08/16 04:13:00;;;;;;;24.63;12.90;;;;;;;;;;723834;194;630435;-61
2022/08/16 04:15:28;;;;;;;18.77;13.13;;;;;;;;;;727610;193;624709;-60
2022/08/16 04:17:51;;;;;;;17.80;13.23;;;;;;;;;;730024;194;621998;-61
2022/08/16 04:20:17;;;;;;;16.73;12.97;;;;;;;;;;726880;193;624628;-60
2022/08/16 04:22:43;;;;;;;19.90;14.93;;;;;;;;;;727798;193;626030;-57
2022/08/16 04:25:09;;;;;;;19.17;14.90;;;;;;;;;;730369;192;625272;-60
2022/08/16 04:27:35;;;;;;;21.27;15.80;;;;;;;;;;727236;194;619739;-58
2022/08/16 04:30:01;;;;;;;20.90;14.60;;;;;;;;;;724053;194;628991;-60
2022/08/16 04:32:27;;;;;;;23.23;16.37;;;;;;;;;;727922;193;614606;-62
2022/08/16 04:34:53;;;;;;;23.70;15.40;;;;;;;;;;723424;193;635009;-60
2022/08/16 04:37:18;;;;;;;23.87;15.47;;;;;;;;;;727772;194;626508;-58
2022/08/16 04:39:44;;;;;;;19.33;14.40;;;;;;;;;;726625;191;633367;-58
2022/08/16 04:42:10;;;;;;;21.33;14.43;;;;;;;;;;726418;193;624406;-60
2022/08/16 04:44:36;;;;;;;21.80;16.40;;;;;;;;;;725969;193;642281;-58
2022/08/16 04:47:02;;;;;;;20.03;15.10;;;;;;;;;;725521;193;627159;-61
2022/08/16 04:49:28;;;;;;;27.33;17.67;;;;;;;;;;730968;193;625603;-60
2022/08/16 04:51:54;;;;;;;33.23;19.47;;;;;;;;;;724366;193;620148;-60
2022/08/16 04:54:19;;;;;;;28.57;19.57;;;;;;;;;;723965;194;633410;-60
2022/08/16 04:56:45;;;;;;;29.03;19.13;;;;;;;;;;724300;194;634384;-58
2022/08/16 04:59:11;;;;;;;28.00;19.70;;;;;;;;;;722165;192;636311;-58
2022/08/16 05:01:37;;;;;;;33.30;20.37;;;;;;;;;;726489;193;632128;-58
2022/08/16 05:04:03;;;;;;;30.10;19.80;;;;;;;;;;727632;194;698887;-58
2022/08/16 05:06:29;;;;;;;30.10;21.00;;;;;;;;;;728196;193;636149;-61
2022/08/16 05:08:55;;;;;;;32.10;21.13;;;;;;;;;;726546;193;635166;-58
2022/08/16 05:11:21;;;;;;;28.37;21.30;;;;;;;;;;721385;194;633906;-58
2022/08/16 05:13:46;;;;;;;36.33;22.73;;;;;;;;;;729397;193;700533;-60
2022/08/16 05:16:14;;;;;;;36.20;23.13;;;;;;;;;;726233;193;626072;-58
2022/08/16 05:18:40;;;;;;;34.23;21.37;;;;;;;;;;725875;194;623717;-58
2022/08/16 05:21:06;;;;;;;36.30;24.20;;;;;;;;;;730402;191;622716;-62
2022/08/16 05:23:32;;;;;;;39.97;23.37;;;;;;;;;;725003;193;614413;-58
2022/08/16 05:25:58;;;;;;;45.40;26.73;;;;;;;;;;726216;193;630546;-60
2022/08/16 05:28:23;;;;;;;42.33;29.50;;;;;;;;;;726855;193;616581;-61
2022/08/16 05:30:51;;;;;;;49.00;31.63;;;;;;;;;;733055;189;624494;-58
2022/08/16 05:33:15;;;;;;;43.63;29.07;;;;;;;;;;725874;193;635829;-58
2022/08/16 05:35:41;;;;;;;41.10;28.30;;;;;;;;;;726107;191;625279;-61
2022/08/16 05:38:07;;;;;;;36.80;27.00;;;;;;;;;;728663;194;623719;-61
2022/08/16 05:40:33;;;;;;;42.20;26.77;;;;;;;;;;725494;193;630274;-58
2022/08/16 05:42:58;;;;;;;34.23;24.40;;;;;;;;;;726345;193;624007;-61
2022/08/16 05:45:24;;;;;;;39.40;26.13;;;;;;;;;;730623;191;619272;-61
2022/08/16 05:47:50;;;;;;;34.60;25.83;;;;;;;;;;725134;194;629041;-61
2022/08/16 05:50:16;;;;;;;35.33;24.80;;;;;;;;;;725486;193;629559;-58
2022/08/16 05:52:42;;;;;;;34.13;24.73;;;;;;;;;;731227;193;635234;-61
2022/08/16 05:55:08;;;;;;;47.73;25.60;;;;;;;;;;725857;193;626779;-61
2022/08/16 05:57:34;;;;;;;32.60;22.07;;;;;;;;;;724758;194;624071;-60
2022/08/16 05:59:59;;;;;;;33.67;23.13;;;;;;;;;;723286;193;623999;-59
2022/08/16 06:02:26;;;;;;;31.07;22.87;;;;;;;;;;728679;194;629306;-58
2022/08/16 06:04:51;;;;;;;28.30;21.07;;;;;;;;;;722619;194;645087;-60
2022/08/16 06:07:17;;;;;;;30.77;21.00;;;;;;;;;;725717;194;622171;-61
2022/08/16 06:09:43;;;;;;;26.33;19.93;;;;;;;;;;730548;193;624774;-61
2022/08/16 06:12:09;;;;;;;28.37;18.73;;;;;;;;;;726649;192;623674;-61
2022/08/16 06:14:35;;;;;;;28.10;19.63;;;;;;;;;;756036;178;623450;-59
2022/08/16 06:17:01;;;;;;;25.93;18.27;;;;;;;;;;778048;178;615638;-61
2022/08/16 06:19:26;;;;;;;23.87;18.57;;;;;;;;;;775770;179;632294;-61
2022/08/16 06:21:52;;;;;;;21.60;18.30;;;;;;;;;;769800;181;629567;-60
2022/08/16 06:24:18;;;;;;;26.37;18.80;;;;;;;;;;780447;176;632927;-60
2022/08/16 06:26:44;;;;;;;20.57;17.40;;;;;;;;;;789245;176;634835;-60
2022/08/16 06:29:10;;;;;;;26.43;16.90;;;;;;;;;;783782;176;623682;-61
2022/08/16 06:31:36;;;;;;;19.43;16.50;;;;;;;;;;782897;176;617585;-60
2022/08/16 06:34:01;;;;;;;22.80;16.43;;;;;;;;;;789249;176;631103;-59
2022/08/16 06:36:28;;;;;;;22.53;16.90;;;;;;;;;;781715;176;626194;-61
2022/08/16 06:38:53;;;;;;;21.60;16.37;;;;;;;;;;783510;176;617251;-62
2022/08/16 06:41:19;;;;;;;26.80;15.60;;;;;;;;;;788336;176;630210;-62
2022/08/16 06:43:46;;;;;;;21.13;16.30;;;;;;;;;;784728;176;617349;-60
2022/08/16 06:46:16;;;;;;;20.87;16.87;;;;;;;;;;788400;176;639642;-60
2022/08/16 06:48:42;;;;;;;18.07;14.07;;;;;;;;;;790795;176;627755;-60
2022/08/16 06:51:08;;;;;;;18.33;15.97;;;;;;;;;;783886;176;618228;-60
2022/08/16 06:53:35;;;;;;;21.10;16.07;;;;;;;;;;772814;179;657233;-60
2022/08/16 06:56:04;;;;;;;21.77;13.93;;;;;;;;;;773021;179;625027;-60
2022/08/16 06:58:26;;;;;;;17.70;14.60;;;;;;;;;;778241;179;629552;-63
2022/08/16 07:00:52;;;;;;;18.20;14.67;;;;;;;;;;776021;179;635842;-64
2022/08/16 07:03:19;;;;;;;17.70;13.80;;;;;;;;;;780003;178;632834;-60
2022/08/16 07:05:43;;;;;;;17.47;13.20;;;;;;;;;;784429;176;622948;-63
2022/08/16 07:08:10;;;;;;;17.50;13.13;;;;;;;;;;771691;179;617524;-60
2022/08/16 07:10:35;;;;;;;17.33;12.77;;;;;;;;;;772079;179;619155;-63
2022/08/16 07:13:01;;;;;;;17.50;12.40;;;;;;;;;;781342;176;620530;-63
2022/08/16 07:15:27;;;;;;;15.40;12.03;;;;;;;;;;787716;176;629147;-60
2022/08/16 07:17:52;;;;;;;15.23;12.60;;;;;;;;;;780956;176;623095;-60
2022/08/16 07:20:21;;;;;;;17.13;11.63;;;;;;;;;;781440;176;626823;-63
2022/08/16 07:22:44;;;;;;;15.10;11.47;;;;;;;;;;786503;176;614239;-60
2022/08/16 07:25:10;;;;;;;14.60;11.57;;;;;;;;;;784270;175;645346;-64
2022/08/16 07:27:36;;;;;;;12.67;11.30;;;;;;;;;;776500;179;613289;-59
2022/08/16 07:30:02;;;;;;;13.20;11.40;;;;;;;;;;782408;179;640485;-64
2022/08/16 07:32:28;;;;;;;16.60;11.70;;;;;;;;;;782297;176;621360;-64
2022/08/16 07:34:53;;;;;;;11.77;10.40;;;;;;;;;;786544;176;623718;-63
2022/08/16 07:37:19;;;;;;;14.10;10.53;;;;;;;;;;785288;176;627629;-64
2022/08/16 07:39:45;;;;;;;15.13;10.67;;;;;;;;;;781896;176;619500;-60
2022/08/16 07:42:11;;;;;;;15.93;10.70;;;;;;;;;;789923;176;626657;-61
2022/08/16 07:44:37;;;;;;;13.40;10.20;;;;;;;;;;786540;176;626216;-64
2022/08/16 07:47:03;;;;;;;14.30;11.10;;;;;;;;;;785443;176;636973;-64
2022/08/16 07:49:28;;;;;;;14.90;9.40;;;;;;;;;;782875;176;628999;-65
2022/08/16 07:51:54;;;;;;;15.10;10.07;;;;;;;;;;783404;176;625773;-62
2022/08/16 07:54:20;;;;;;;11.50;9.37;;;;;;;;;;788947;177;617849;-60
2022/08/16 07:56:46;;;;;;;11.73;10.03;;;;;;;;;;784920;176;622484;-65
2022/08/16 07:59:12;;;;;;;14.17;10.17;;;;;;;;;;784383;177;625717;-60
2022/08/16 08:01:38;;;;;;;14.20;9.30;;;;;;;;;;782547;176;619003;-60
2022/08/16 08:04:04;;;;;;;11.43;9.73;;;;;;;;;;789906;176;632788;-64
2022/08/16 08:06:29;;;;;;;12.33;9.30;;;;;;;;;;783444;176;621630;-63
2022/08/16 08:08:55;;;;;;;10.43;8.77;;;;;;;;;;785360;176;627176;-60
2022/08/16 08:11:21;;;;;;;10.97;8.00;;;;;;;;;;786894;176;626839;-60
2022/08/16 08:13:47;;;;;;;9.80;8.33;;;;;;;;;;782387;178;617616;-60
2022/08/16 08:16:13;;;;;;;16.07;9.70;;;;;;;;;;780886;176;630416;-60
2022/08/16 08:18:39;;;;;;;12.83;8.37;;;;;;;;;;786723;177;633139;-59
2022/08/16 08:21:06;;;;;;;13.90;9.10;;;;;;;;;;783997;176;634680;-63
2022/08/16 08:23:30;;;;;;;13.53;9.57;;;;;;;;;;779331;176;635365;-59
2022/08/16 08:25:56;;;;;;;14.33;8.20;;;;;;;;;;771064;179;631625;-64
2022/08/16 08:28:22;;;;;;;11.93;9.30;;;;;;;;;;770125;179;625780;-59
2022/08/16 08:30:48;;;;;;;10.30;9.30;;;;;;;;;;773758;179;623469;-59
2022/08/16 08:33:14;;;;;;;12.63;8.77;;;;;;;;;;769889;179;624110;-60
2022/08/16 08:35:40;;;;;;;12.10;8.70;;;;;;;;;;777918;179;614137;-59
2022/08/16 08:38:07;;;;;;;10.80;8.30;;;;;;;;;;778808;179;614716;-62
2022/08/16 08:40:32;;;;;;;8.97;7.67;;;;;;;;;;774106;180;632657;-62
2022/08/16 08:42:57;;;;;;;13.53;9.20;;;;;;;;;;778351;179;621788;-59
2022/08/16 08:45:24;;;;;;;12.00;8.97;;;;;;;;;;780844;178;626574;-64
2022/08/16 08:47:49;;;;;;;8.63;7.73;;;;;;;;;;785575;176;638356;-60
2022/08/16 08:50:16;;;;;;;9.27;8.20;;;;;;;;;;786583;176;633620;-64
2022/08/16 08:52:42;;;;;;;10.07;8.83;;;;;;;;;;783372;178;627411;-60
2022/08/16 08:55:07;;;;;;;9.83;8.43;;;;;;;;;;783478;176;628511;-61
2022/08/16 08:57:34;;;;;;;10.03;8.70;;;;;;;;;;791973;176;623750;-64
2022/08/16 09:00:00;;;;;;;8.83;7.37;;;;;;;;;;782546;176;633918;-60
2022/08/16 09:02:25;;;;;;;10.30;8.30;;;;;;;;;;778420;179;707515;-60
2022/08/16 09:04:51;;;;;;;11.53;9.57;;;;;;;;;;772982;179;618778;-64
2022/08/16 09:07:17;;;;;;;11.80;8.70;;;;;;;;;;773301;182;637876;-60
2022/08/16 09:09:43;;;;;;;10.47;8.43;;;;;;;;;;776362;179;628476;-63
2022/08/16 09:12:08;;;;;;;11.03;7.80;;;;;;;;;;774984;179;630001;-60
2022/08/16 09:14:34;;;;;;;9.10;7.30;;;;;;;;;;781975;176;627792;-60
2022/08/16 09:17:00;;;;;;;9.63;7.50;;;;;;;;;;783016;176;618299;-63
2022/08/16 09:19:26;;;;;;;11.90;7.80;;;;;;;;;;785414;176;626838;-63
2022/08/16 09:21:52;;;;;;;10.80;7.33;;;;;;;;;;781900;177;624136;-63
2022/08/16 09:24:18;;;;;;;8.40;7.20;;;;;;;;;;772152;181;614683;-59
2022/08/16 09:26:43;;;;;;;10.50;8.37;;;;;;;;;;767070;181;624347;-62
2022/08/16 09:29:09;;;;;;;14.80;8.00;;;;;;;;;;760897;184;625081;-59
2022/08/16 09:31:36;;;;;;;9.80;8.13;;;;;;;;;;761128;184;617407;-59
2022/08/16 09:34:01;;;;;;;10.90;9.50;;;;;;;;;;763350;182;625792;-62
2022/08/16 09:36:28;;;;;;;14.97;8.20;;;;;;;;;;759970;184;637107;-59
2022/08/16 09:38:53;;;;;;;13.33;8.13;;;;;;;;;;762945;183;633900;-59
2022/08/16 09:41:19;;;;;;;12.33;8.90;;;;;;;;;;782275;176;629563;-62
2022/08/16 09:43:44;;;;;;;9.70;7.57;;;;;;;;;;784344;176;626226;-63
2022/08/16 09:46:10;;;;;;;10.23;7.90;;;;;;;;;;784625;174;641772;-60
2022/08/16 09:48:40;;;;;;;13.87;8.57;;;;;;;;;;793003;175;617159;-59
2022/08/16 09:51:02;;;;;;;9.80;7.70;;;;;;;;;;778127;178;643199;-64
2022/08/16 09:53:31;;;;;;;11.10;9.10;;;;;;;;;;776257;179;626715;-64
2022/08/16 09:55:54;;;;;;;11.37;8.10;;;;;;;;;;779302;179;651866;-59
2022/08/16 09:58:20;;;;;;;8.80;7.43;;;;;;;;;;784204;176;646528;-63
2022/08/16 10:00:48;;;;;;;10.17;7.67;;;;;;;;;;785720;176;625281;-62
2022/08/16 10:03:12;;;;;;;9.30;8.00;;;;;;;;;;787506;176;624105;-59
2022/08/16 10:05:38;;;;;;;10.27;7.90;;;;;;;;;;784617;177;622982;-63
2022/08/16 10:08:04;;;;;;;13.30;7.53;;;;;;;;;;783412;176;629751;-62
2022/08/16 10:10:29;;;;;;;9.63;7.70;;;;;;;;;;783013;176;619113;-63
2022/08/16 10:15:27;;;;;;;9.20;7.53;;;;;;;;;;780096;178;628466;-59
2022/08/16 10:17:53;;;;;;;8.00;7.20;;;;;;;;;;782000;176;623852;-59
2022/08/16 10:20:19;;;;;;;7.37;6.63;;;;;;;;;;788397;176;623852;-59
2022/08/16 10:22:44;;;;;;;7.47;6.53;;;;;;;;;;785266;177;636206;-59
2022/08/16 10:25:10;;;;;;;12.40;6.90;;;;;;;;;;785536;177;629167;-62
2022/08/16 10:27:37;;;;;;;8.38;5.93;;;;;;;;;;788549;176;624546;-61
2022/08/16 10:30:02;;;;;;;9.90;6.83;;;;;;;;;;772443;182;634853;-63
2022/08/16 10:32:28;;;;;;;8.80;7.30;;;;;;;;;;781888;178;631884;-59
2022/08/16 10:34:54;;;;;;;8.43;6.87;;;;;;;;;;782827;177;622910;-59
2022/08/16 10:37:20;;;;;;;10.50;7.17;;;;;;;;;;786376;176;629235;-59
2022/08/16 10:39:46;;;;;;;10.47;7.87;;;;;;;;;;784434;178;630822;-63
2022/08/16 10:42:12;;;;;;;9.50;8.47;;;;;;;;;;784368;176;633976;-60
2022/08/16 10:44:37;;;;;;;11.67;7.87;;;;;;;;;;784613;177;626772;-62
2022/08/16 10:47:03;;;;;;;9.63;6.90;;;;;;;;;;781719;176;623330;-62
2022/08/16 10:49:29;;;;;;;9.97;6.60;;;;;;;;;;782738;176;624257;-59
2022/08/16 10:51:55;;;;;;;12.03;7.73;;;;;;;;;;787323;176;628588;-62
2022/08/16 10:54:21;;;;;;;9.73;6.23;;;;;;;;;;783012;178;629989;-59
2022/08/16 10:56:47;;;;;;;8.80;6.80;;;;;;;;;;783754;176;622951;-62
2022/08/16 10:59:13;;;;;;;12.97;6.77;;;;;;;;;;786210;175;623584;-59
2022/08/16 11:01:39;;;;;;;9.00;7.17;;;;;;;;;;790139;175;625894;-59
2022/08/16 11:04:05;;;;;;;11.63;6.77;;;;;;;;;;787166;176;641170;-60
2022/08/16 11:06:30;;;;;;;7.80;6.53;;;;;;;;;;783704;176;636737;-60
2022/08/16 11:08:57;;;;;;;11.33;6.43;;;;;;;;;;787838;176;618375;-62
2022/08/16 11:11:22;;;;;;;8.50;7.67;;;;;;;;;;781688;176;640048;-60
2022/08/16 11:13:48;;;;;;;9.43;7.63;;;;;;;;;;781174;178;629435;-64
2022/08/16 11:16:14;;;;;;;8.47;6.80;;;;;;;;;;789822;176;631418;-63
2022/08/16 11:18:39;;;;;;;7.43;6.63;;;;;;;;;;773438;179;631954;-60
2022/08/16 11:21:06;;;;;;;9.57;7.43;;;;;;;;;;781912;176;632586;-60
2022/08/16 11:23:31;;;;;;;8.20;7.40;;;;;;;;;;784113;176;633039;-63
2022/08/16 11:25:58;;;;;;;8.90;7.23;;;;;;;;;;775791;177;626090;-62
2022/08/16 11:28:23;;;;;;;11.40;7.40;;;;;;;;;;781904;176;627869;-59
2022/08/16 11:30:49;;;;;;;8.47;7.50;;;;;;;;;;784061;176;617174;-62
2022/08/16 11:33:15;;;;;;;8.40;7.47;;;;;;;;;;788930;176;620682;-59
2022/08/16 11:35:40;;;;;;;9.67;7.10;;;;;;;;;;784161;176;626580;-64
2022/08/16 11:38:06;;;;;;;8.30;6.60;;;;;;;;;;782796;176;626521;-60
2022/08/16 11:40:33;;;;;;;9.70;7.43;;;;;;;;;;784499;176;617882;-60
2022/08/16 11:43:00;;;;;;;8.10;6.40;;;;;;;;;;780395;176;625397;-59
2022/08/16 11:45:25;;;;;;;10.20;7.00;;;;;;;;;;780614;176;637444;-59
2022/08/16 11:47:51;;;;;;;7.60;6.80;;;;;;;;;;782149;176;637911;-63
2022/08/16 11:50:16;;;;;;;12.83;6.43;;;;;;;;;;777168;179;617364;-63
2022/08/16 11:52:42;;;;;;;12.60;6.97;;;;;;;;;;772613;179;617863;-58
2022/08/16 11:55:08;;;;;;;9.00;7.70;;;;;;;;;;773759;179;627739;-63
2022/08/16 11:57:34;;;;;;;9.00;7.83;;;;;;;;;;778616;179;627118;-59
2022/08/16 12:00:00;;;;;;;10.70;6.17;;;;;;;;;;781110;176;641116;-64
2022/08/16 12:02:26;;;;;;;7.80;6.47;;;;;;;;;;775583;179;619744;-63
2022/08/16 12:04:52;;;;;;;6.00;5.33;;;;;;;;;;774894;179;624973;-63
2022/08/16 12:07:17;;;;;;;6.60;5.57;;;;;;;;;;773018;179;640004;-65
2022/08/16 12:09:43;;;;;;;6.57;5.40;;;;;;;;;;788763;176;621210;-60
2022/08/16 12:12:09;;;;;;;7.60;5.22;;;;;;;;;;787803;175;634026;-63
2022/08/16 12:14:35;;;;;;;7.03;4.90;;;;;;;;;;778834;179;622729;-60
2022/08/16 12:17:01;;;;;;;7.23;5.10;;;;;;;;;;777062;178;637723;-61
2022/08/16 12:19:27;;;;;;;6.23;5.10;;;;;;;;;;776149;179;621432;-60
2022/08/16 12:21:53;;;;;;;7.23;4.97;;;;;;;;;;780850;179;626134;-60
2022/08/16 12:24:19;;;;;;;7.57;5.10;;;;;;;;;;785133;176;632082;-65
2022/08/16 12:26:44;;;;;;;8.20;5.97;;;;;;;;;;783899;177;625210;-59
2022/08/16 12:29:10;;;;;;;10.40;5.13;;;;;;;;;;786349;176;620723;-64
2022/08/16 12:31:36;;;;;;;10.23;5.87;;;;;;;;;;784088;176;628593;-65
2022/08/16 12:34:02;;;;;;;10.50;6.33;;;;;;;;;;783188;176;617095;-60
2022/08/16 12:36:28;;;;;;;7.40;5.93;;;;;;;;;;785746;176;618600;-64
2022/08/16 12:38:54;;;;;;;7.80;6.23;;;;;;;;;;782291;176;628726;-60
2022/08/16 12:41:19;;;;;;;8.17;5.60;;;;;;;;;;781478;176;619303;-64
2022/08/16 12:43:45;;;;;;;8.87;4.50;;;;;;;;;;782747;176;627181;-64
2022/08/16 12:46:11;;;;;;;8.07;3.77;;;;;;;;;;788111;176;621923;-64
2022/08/16 12:51:08;;;;;;;4.60;3.80;;;;;;;;;;782377;177;623603;-64
2022/08/16 12:53:34;;;;;;;5.93;3.97;;;;;;;;;;785390;176;622857;-64
2022/08/16 12:56:00;;;;;;;6.40;3.80;;;;;;;;;;784525;176;629381;-64
2022/08/16 12:58:26;;;;;;;4.57;3.87;;;;;;;;;;782934;176;623427;-64
2022/08/16 13:00:52;;;;;;;5.43;3.90;;;;;;;;;;783969;176;624398;-60
2022/08/16 13:03:18;;;;;;;5.60;4.70;;;;;;;;;;786029;176;617003;-59
2022/08/16 13:05:44;;;;;;;6.27;4.57;;;;;;;;;;784097;176;633933;-65
2022/08/16 13:08:12;;;;;;;6.33;4.33;;;;;;;;;;784068;176;617172;-65
2022/08/16 13:10:37;;;;;;;7.10;4.70;;;;;;;;;;786267;176;630082;-59
2022/08/16 13:13:04;;;;;;;5.60;4.57;;;;;;;;;;784984;176;623037;-65
2022/08/16 13:15:28;;;;;;;5.63;4.70;;;;;;;;;;785092;176;617612;-60
2022/08/16 13:17:54;;;;;;;5.60;4.57;;;;;;;;;;785848;176;632203;-65
2022/08/16 13:20:21;;;;;;;8.10;4.80;;;;;;;;;;783419;176;619658;-64
2022/08/16 13:22:46;;;;;;;5.77;4.57;;;;;;;;;;786238;175;629841;-60
2022/08/16 13:25:12;;;;;;;11.17;5.37;;;;;;;;;;785087;175;629962;-60
2022/08/16 13:27:38;;;;;;;13.30;5.00;;;;;;;;;;786092;176;623670;-64
2022/08/16 13:30:04;;;;;;;19.80;5.30;;;;;;;;;;783911;176;621110;-60
2022/08/16 13:32:30;;;;;;;13.50;5.77;;;;;;;;;;782206;176;635118;-59
2022/08/16 13:34:56;;;;;;;15.53;5.40;;;;;;;;;;789215;176;640832;-59
2022/08/16 13:37:22;;;;;;;6.00;4.87;;;;;;;;;;785571;176;633671;-65
2022/08/16 13:39:48;;;;;;;10.07;4.73;;;;;;;;;;783508;176;630846;-60
2022/08/16 13:42:13;;;;;;;8.23;5.30;;;;;;;;;;787280;176;618686;-60
2022/08/16 13:44:39;;;;;;;7.00;5.47;;;;;;;;;;784374;176;636992;-65
2022/08/16 13:47:06;;;;;;;7.20;4.90;;;;;;;;;;784805;176;645541;-60
2022/08/16 13:49:31;;;;;;;8.73;5.40;;;;;;;;;;783717;176;629876;-66
2022/08/16 13:51:57;;;;;;;6.13;4.87;;;;;;;;;;776053;177;619122;-59
2022/08/16 13:54:23;;;;;;;10.10;5.70;;;;;;;;;;782949;176;627819;-64
2022/08/16 13:56:49;;;;;;;8.33;5.87;;;;;;;;;;783525;176;630509;-63
2022/08/16 13:59:14;;;;;;;10.50;4.87;;;;;;;;;;788006;176;627007;-58
2022/08/16 14:01:40;;;;;;;8.57;6.17;;;;;;;;;;784890;176;622258;-59
2022/08/16 14:04:06;;;;;;;8.63;6.03;;;;;;;;;;782062;176;625363;-59
2022/08/16 14:06:32;;;;;;;13.63;5.90;;;;;;;;;;784834;176;611949;-59
2022/08/16 14:08:58;;;;;;;6.27;5.20;;;;;;;;;;781392;176;631140;-58
2022/08/16 14:11:24;;;;;;;8.10;5.23;;;;;;;;;;781041;176;624674;-63